sensor_id;sensor_type;location;lat;lon;timestamp;noise_LAeq;noise_LA_min;noise_LA_max;noise_LA01;noise_LA95
73638;Laerm;53743;51.100;5.874;2023-07-20T00:01:01;30.62;28.52;37.68;;
73638;Laerm;53743;51.100;5.874;2023-07-20T00:02:02;59.31;28.77;77.83;;
73638;Laerm;53743;51.100;5.874;2023-07-20T00:03:14;32.31;28.85;45.62;;
73638;Laerm;53743;51.100;5.874;2023-07-20T00:04:17;51.45;28.32;65.77;;
73638;Laerm;53743;51.100;5.874;2023-07-20T00:05:19;30.57;28.18;35.86;;
73638;Laerm;53743;51.100;5.874;2023-07-20T00:06:22;29.91;28.20;36.99;;
73638;Laerm;53743;51.100;5.874;2023-07-20T00:07:25;30.13;28.36;42.97;;
73638;Laerm;53743;51.100;5.874;2023-07-20T00:08:27;29.97;28.14;32.32;;
73638;Laerm;53743;51.100;5.874;2023-07-20T00:09:29;55.57;28.85;71.12;;
73638;Laerm;53743;51.100;5.874;2023-07-20T00:10:30;31.68;28.63;41.87;;
73638;Laerm;53743;51.100;5.874;2023-07-20T00:11:37;39.50;29.31;61.27;;
73638;Laerm;53743;51.100;5.874;2023-07-20T00:12:38;30.80;28.72;38.88;;
73638;Laerm;53743;51.100;5.874;2023-07-20T00:13:40;30.48;28.63;33.15;;
73638;Laerm;53743;51.100;5.874;2023-07-20T00:14:41;29.94;28.31;32.40;;
73638;Laerm;53743;51.100;5.874;2023-07-20T00:15:43;30.58;28.56;35.47;;
73638;Laerm;53743;51.100;5.874;2023-07-20T00:16:45;49.80;28.73;67.74;;
73638;Laerm;53743;51.100;5.874;2023-07-20T00:17:47;52.35;29.52;73.96;;
73638;Laerm;53743;51.100;5.874;2023-07-20T00:18:49;54.61;28.01;69.67;;
73638;Laerm;53743;51.100;5.874;2023-07-20T00:19:50;54.45;28.65;69.62;;
73638;Laerm;53743;51.100;5.874;2023-07-20T00:20:52;30.22;28.29;34.28;;
73638;Laerm;53743;51.100;5.874;2023-07-20T00:21:53;30.41;28.03;35.51;;
73638;Laerm;53743;51.100;5.874;2023-07-20T00:22:56;31.30;29.03;44.22;;
73638;Laerm;53743;51.100;5.874;2023-07-20T00:23:59;31.32;29.43;41.51;;
73638;Laerm;53743;51.100;5.874;2023-07-20T00:25:02;31.18;28.54;40.63;;
73638;Laerm;53743;51.100;5.874;2023-07-20T00:26:03;31.02;28.73;41.35;;
73638;Laerm;53743;51.100;5.874;2023-07-20T00:27:05;30.83;28.42;42.56;;
73638;Laerm;53743;51.100;5.874;2023-07-20T00:28:06;30.81;28.89;33.46;;
73638;Laerm;53743;51.100;5.874;2023-07-20T00:29:08;31.03;29.16;41.72;;
73638;Laerm;53743;51.100;5.874;2023-07-20T00:30:12;30.38;28.18;32.71;;
73638;Laerm;53743;51.100;5.874;2023-07-20T00:31:14;55.37;28.83;71.73;;
73638;Laerm;53743;51.100;5.874;2023-07-20T00:32:15;30.18;28.51;40.21;;
73638;Laerm;53743;51.100;5.874;2023-07-20T00:33:18;54.69;28.90;72.57;;
73638;Laerm;53743;51.100;5.874;2023-07-20T00:34:19;30.88;28.14;43.55;;
73638;Laerm;53743;51.100;5.874;2023-07-20T00:35:21;30.66;28.40;42.58;;
73638;Laerm;53743;51.100;5.874;2023-07-20T00:36:22;30.97;28.69;43.08;;
73638;Laerm;53743;51.100;5.874;2023-07-20T00:37:24;33.24;29.04;44.88;;
73638;Laerm;53743;51.100;5.874;2023-07-20T00:38:26;31.54;28.93;40.98;;
73638;Laerm;53743;51.100;5.874;2023-07-20T00:39:29;32.32;28.92;46.91;;
73638;Laerm;53743;51.100;5.874;2023-07-20T00:40:36;30.77;28.49;44.42;;
73638;Laerm;53743;51.100;5.874;2023-07-20T00:41:38;30.24;28.26;39.43;;
73638;Laerm;53743;51.100;5.874;2023-07-20T00:42:39;29.84;27.73;32.28;;
73638;Laerm;53743;51.100;5.874;2023-07-20T00:43:42;30.23;28.32;36.08;;
73638;Laerm;53743;51.100;5.874;2023-07-20T00:44:43;56.30;29.76;71.27;;
73638;Laerm;53743;51.100;5.874;2023-07-20T00:45:45;34.37;29.77;42.78;;
73638;Laerm;53743;51.100;5.874;2023-07-20T00:46:48;38.49;29.00;54.46;;
73638;Laerm;53743;51.100;5.874;2023-07-20T00:47:50;54.22;29.87;70.58;;
73638;Laerm;53743;51.100;5.874;2023-07-20T00:48:52;32.26;29.24;43.54;;
73638;Laerm;53743;51.100;5.874;2023-07-20T00:49:55;30.88;28.73;38.76;;
73638;Laerm;53743;51.100;5.874;2023-07-20T00:50:58;30.07;28.30;33.22;;
73638;Laerm;53743;51.100;5.874;2023-07-20T00:52:03;30.47;28.52;34.47;;
73638;Laerm;53743;51.100;5.874;2023-07-20T00:53:07;30.77;28.65;33.76;;
73638;Laerm;53743;51.100;5.874;2023-07-20T00:54:10;30.40;27.91;32.54;;
73638;Laerm;53743;51.100;5.874;2023-07-20T00:55:13;30.10;28.32;39.05;;
73638;Laerm;53743;51.100;5.874;2023-07-20T00:56:16;30.39;28.43;32.19;;
73638;Laerm;53743;51.100;5.874;2023-07-20T00:57:19;31.00;28.97;36.14;;
73638;Laerm;53743;51.100;5.874;2023-07-20T00:58:21;47.02;28.45;67.90;;
73638;Laerm;53743;51.100;5.874;2023-07-20T00:59:25;54.25;28.29;71.26;;
73638;Laerm;53743;51.100;5.874;2023-07-20T01:00:27;30.07;28.38;33.18;;
73638;Laerm;53743;51.100;5.874;2023-07-20T01:01:28;31.02;29.56;35.39;;
73638;Laerm;53743;51.100;5.874;2023-07-20T01:02:31;30.91;29.20;42.93;;
73638;Laerm;53743;51.100;5.874;2023-07-20T01:03:32;30.90;29.10;33.51;;
73638;Laerm;53743;51.100;5.874;2023-07-20T01:04:35;30.89;29.21;34.53;;
73638;Laerm;53743;51.100;5.874;2023-07-20T01:05:48;55.99;30.13;72.41;;
73638;Laerm;53743;51.100;5.874;2023-07-20T01:07:05;32.66;30.52;35.72;;
73638;Laerm;53743;51.100;5.874;2023-07-20T01:08:21;31.92;29.79;34.08;;
73638;Laerm;53743;51.100;5.874;2023-07-20T01:09:39;31.49;29.63;46.72;;
73638;Laerm;53743;51.100;5.874;2023-07-20T01:10:53;31.49;29.61;39.10;;
73638;Laerm;53743;51.100;5.874;2023-07-20T01:12:08;31.57;29.37;33.60;;
73638;Laerm;53743;51.100;5.874;2023-07-20T01:13:10;31.44;29.36;33.77;;
73638;Laerm;53743;51.100;5.874;2023-07-20T01:14:32;31.62;29.56;34.25;;
73638;Laerm;53743;51.100;5.874;2023-07-20T01:15:36;31.13;29.28;36.12;;
73638;Laerm;53743;51.100;5.874;2023-07-20T01:16:37;30.74;28.63;32.75;;
73638;Laerm;53743;51.100;5.874;2023-07-20T01:17:40;31.04;29.18;37.03;;
73638;Laerm;53743;51.100;5.874;2023-07-20T01:18:41;31.03;28.65;35.85;;
73638;Laerm;53743;51.100;5.874;2023-07-20T01:19:43;30.90;28.83;33.39;;
73638;Laerm;53743;51.100;5.874;2023-07-20T01:20:45;31.39;29.24;37.33;;
73638;Laerm;53743;51.100;5.874;2023-07-20T01:21:55;54.62;30.37;70.63;;
73638;Laerm;53743;51.100;5.874;2023-07-20T01:23:41;31.53;29.11;35.65;;
73638;Laerm;53743;51.100;5.874;2023-07-20T01:25:21;30.66;28.47;43.53;;
73638;Laerm;53743;51.100;5.874;2023-07-20T01:26:59;30.55;28.75;34.88;;
73638;Laerm;53743;51.100;5.874;2023-07-20T01:28:34;30.38;28.29;38.22;;
73638;Laerm;53743;51.100;5.874;2023-07-20T01:30:08;30.20;28.54;32.79;;
73638;Laerm;53743;51.100;5.874;2023-07-20T01:31:23;30.12;28.47;32.62;;
73638;Laerm;53743;51.100;5.874;2023-07-20T01:32:26;30.70;28.55;33.42;;
73638;Laerm;53743;51.100;5.874;2023-07-20T01:33:34;30.43;28.98;35.14;;
73638;Laerm;53743;51.100;5.874;2023-07-20T01:34:36;30.52;28.83;32.56;;
73638;Laerm;53743;51.100;5.874;2023-07-20T01:35:42;30.53;29.08;40.79;;
73638;Laerm;53743;51.100;5.874;2023-07-20T01:36:49;31.63;29.33;34.97;;
73638;Laerm;53743;51.100;5.874;2023-07-20T01:37:54;30.80;28.73;33.74;;
73638;Laerm;53743;51.100;5.874;2023-07-20T01:39:01;31.37;29.56;34.24;;
73638;Laerm;53743;51.100;5.874;2023-07-20T01:40:10;56.66;29.54;73.44;;
73638;Laerm;53743;51.100;5.874;2023-07-20T01:41:12;31.01;28.69;40.65;;
73638;Laerm;53743;51.100;5.874;2023-07-20T01:42:15;31.12;29.05;34.86;;
73638;Laerm;53743;51.100;5.874;2023-07-20T01:43:16;31.22;29.13;34.89;;
73638;Laerm;53743;51.100;5.874;2023-07-20T01:44:19;31.00;29.01;33.37;;
73638;Laerm;53743;51.100;5.874;2023-07-20T01:45:20;30.60;28.94;32.73;;
73638;Laerm;53743;51.100;5.874;2023-07-20T01:46:23;31.28;29.13;34.14;;
73638;Laerm;53743;51.100;5.874;2023-07-20T01:47:24;31.73;29.68;36.57;;
73638;Laerm;53743;51.100;5.874;2023-07-20T01:48:27;43.76;31.60;55.43;;
73638;Laerm;53743;51.100;5.874;2023-07-20T01:49:28;57.71;33.27;73.38;;
73638;Laerm;53743;51.100;5.874;2023-07-20T01:50:30;35.03;29.28;47.84;;
73638;Laerm;53743;51.100;5.874;2023-07-20T01:51:33;56.65;29.06;72.26;;
73638;Laerm;53743;51.100;5.874;2023-07-20T01:52:35;30.76;29.22;32.88;;
73638;Laerm;53743;51.100;5.874;2023-07-20T01:53:36;30.95;29.16;33.23;;
73638;Laerm;53743;51.100;5.874;2023-07-20T01:54:38;31.06;29.22;34.12;;
73638;Laerm;53743;51.100;5.874;2023-07-20T01:55:39;31.39;29.32;40.10;;
73638;Laerm;53743;51.100;5.874;2023-07-20T01:56:40;31.21;29.20;34.08;;
73638;Laerm;53743;51.100;5.874;2023-07-20T01:57:43;31.24;29.19;41.83;;
73638;Laerm;53743;51.100;5.874;2023-07-20T01:58:44;31.32;29.43;36.45;;
73638;Laerm;53743;51.100;5.874;2023-07-20T01:59:46;30.78;28.79;42.03;;
73638;Laerm;53743;51.100;5.874;2023-07-20T02:00:47;31.22;29.61;34.23;;
73638;Laerm;53743;51.100;5.874;2023-07-20T02:01:50;33.33;29.54;43.30;;
73638;Laerm;53743;51.100;5.874;2023-07-20T02:02:51;32.77;30.46;37.24;;
73638;Laerm;53743;51.100;5.874;2023-07-20T02:03:53;31.83;29.88;33.55;;
73638;Laerm;53743;51.100;5.874;2023-07-20T02:04:55;32.20;29.30;39.07;;
73638;Laerm;53743;51.100;5.874;2023-07-20T02:05:57;56.90;29.69;72.57;;
73638;Laerm;53743;51.100;5.874;2023-07-20T02:06:58;58.68;29.47;75.26;;
73638;Laerm;53743;51.100;5.874;2023-07-20T02:08:00;30.76;29.03;46.91;;
73638;Laerm;53743;51.100;5.874;2023-07-20T02:09:02;31.18;28.88;44.16;;
73638;Laerm;53743;51.100;5.874;2023-07-20T02:10:09;31.35;29.53;34.30;;
73638;Laerm;53743;51.100;5.874;2023-07-20T02:11:10;31.21;29.36;45.59;;
73638;Laerm;53743;51.100;5.874;2023-07-20T02:12:12;31.79;29.49;43.77;;
73638;Laerm;53743;51.100;5.874;2023-07-20T02:13:15;31.29;29.28;33.76;;
73638;Laerm;53743;51.100;5.874;2023-07-20T02:14:16;44.29;30.37;67.19;;
73638;Laerm;53743;51.100;5.874;2023-07-20T02:15:18;31.10;28.99;34.38;;
73638;Laerm;53743;51.100;5.874;2023-07-20T02:16:20;30.66;28.89;33.14;;
73638;Laerm;53743;51.100;5.874;2023-07-20T02:17:23;37.14;29.44;49.69;;
73638;Laerm;53743;51.100;5.874;2023-07-20T02:18:24;61.31;29.72;75.08;;
73638;Laerm;53743;51.100;5.874;2023-07-20T02:19:26;31.23;29.43;37.31;;
73638;Laerm;53743;51.100;5.874;2023-07-20T02:20:28;32.05;29.82;35.43;;
73638;Laerm;53743;51.100;5.874;2023-07-20T02:21:30;31.45;29.46;34.29;;
73638;Laerm;53743;51.100;5.874;2023-07-20T02:22:31;31.08;29.04;32.88;;
73638;Laerm;53743;51.100;5.874;2023-07-20T02:23:33;30.77;29.11;33.13;;
73638;Laerm;53743;51.100;5.874;2023-07-20T02:24:34;31.30;29.25;38.80;;
73638;Laerm;53743;51.100;5.874;2023-07-20T02:25:36;32.83;29.77;42.46;;
73638;Laerm;53743;51.100;5.874;2023-07-20T02:26:37;33.99;29.31;44.81;;
73638;Laerm;53743;51.100;5.874;2023-07-20T02:27:39;34.64;29.47;45.70;;
73638;Laerm;53743;51.100;5.874;2023-07-20T02:28:40;34.24;29.50;44.65;;
73638;Laerm;53743;51.100;5.874;2023-07-20T02:29:43;40.18;29.49;51.77;;
73638;Laerm;53743;51.100;5.874;2023-07-20T02:30:45;36.40;30.56;46.43;;
73638;Laerm;53743;51.100;5.874;2023-07-20T02:31:48;34.64;29.83;44.83;;
73638;Laerm;53743;51.100;5.874;2023-07-20T02:32:50;57.84;29.48;70.66;;
73638;Laerm;53743;51.100;5.874;2023-07-20T02:33:52;34.27;29.45;45.60;;
73638;Laerm;53743;51.100;5.874;2023-07-20T02:34:54;35.81;30.25;46.99;;
73638;Laerm;53743;51.100;5.874;2023-07-20T02:35:57;34.94;29.65;45.19;;
73638;Laerm;53743;51.100;5.874;2023-07-20T02:37:01;34.92;29.35;45.04;;
73638;Laerm;53743;51.100;5.874;2023-07-20T02:38:03;35.57;29.68;47.27;;
73638;Laerm;53743;51.100;5.874;2023-07-20T02:39:05;34.43;29.25;46.75;;
73638;Laerm;53743;51.100;5.874;2023-07-20T02:40:11;35.43;29.61;48.99;;
73638;Laerm;53743;51.100;5.874;2023-07-20T02:41:14;51.79;29.66;66.34;;
73638;Laerm;53743;51.100;5.874;2023-07-20T02:42:15;33.69;29.80;41.80;;
73638;Laerm;53743;51.100;5.874;2023-07-20T02:43:17;32.53;29.77;42.30;;
73638;Laerm;53743;51.100;5.874;2023-07-20T02:44:20;32.87;29.72;43.29;;
73638;Laerm;53743;51.100;5.874;2023-07-20T02:45:21;32.77;29.39;41.46;;
73638;Laerm;53743;51.100;5.874;2023-07-20T02:46:23;32.62;29.61;40.10;;
73638;Laerm;53743;51.100;5.874;2023-07-20T02:47:24;32.33;29.74;42.49;;
73638;Laerm;53743;51.100;5.874;2023-07-20T02:48:28;32.98;29.44;43.96;;
73638;Laerm;53743;51.100;5.874;2023-07-20T02:49:29;32.97;29.72;43.79;;
73638;Laerm;53743;51.100;5.874;2023-07-20T02:50:31;33.59;29.63;47.71;;
73638;Laerm;53743;51.100;5.874;2023-07-20T02:51:32;57.94;31.33;71.90;;
73638;Laerm;53743;51.100;5.874;2023-07-20T02:52:34;41.67;30.18;57.54;;
73638;Laerm;53743;51.100;5.874;2023-07-20T02:53:35;33.37;29.76;44.46;;
73638;Laerm;53743;51.100;5.874;2023-07-20T02:54:38;56.14;32.66;70.83;;
73638;Laerm;53743;51.100;5.874;2023-07-20T02:55:39;60.90;32.06;74.85;;
73638;Laerm;53743;51.100;5.874;2023-07-20T02:56:41;52.41;31.67;67.93;;
73638;Laerm;53743;51.100;5.874;2023-07-20T02:57:42;42.94;32.50;52.11;;
73638;Laerm;53743;51.100;5.874;2023-07-20T02:58:45;39.51;30.62;50.99;;
73638;Laerm;53743;51.100;5.874;2023-07-20T02:59:46;58.38;31.08;74.22;;
73638;Laerm;53743;51.100;5.874;2023-07-20T03:00:48;56.05;30.83;73.07;;
73638;Laerm;53743;51.100;5.874;2023-07-20T03:01:49;38.63;29.91;50.08;;
73638;Laerm;53743;51.100;5.874;2023-07-20T03:02:51;37.53;30.81;46.98;;
73638;Laerm;53743;51.100;5.874;2023-07-20T03:04:00;49.82;30.67;65.32;;
73638;Laerm;53743;51.100;5.874;2023-07-20T03:05:01;43.64;30.62;56.97;;
73638;Laerm;53743;51.100;5.874;2023-07-20T03:06:06;59.94;30.25;75.85;;
73638;Laerm;53743;51.100;5.874;2023-07-20T03:07:09;56.62;29.77;72.61;;
73638;Laerm;53743;51.100;5.874;2023-07-20T03:08:11;37.60;30.33;50.66;;
73638;Laerm;53743;51.100;5.874;2023-07-20T03:09:13;56.02;30.76;72.39;;
73638;Laerm;53743;51.100;5.874;2023-07-20T03:10:16;43.99;30.95;60.52;;
73638;Laerm;53743;51.100;5.874;2023-07-20T03:11:19;52.59;31.61;67.63;;
73638;Laerm;53743;51.100;5.874;2023-07-20T03:12:22;41.90;30.30;57.32;;
73638;Laerm;53743;51.100;5.874;2023-07-20T03:13:23;38.99;31.02;56.52;;
73638;Laerm;53743;51.100;5.874;2023-07-20T03:14:26;33.49;29.98;49.33;;
73638;Laerm;53743;51.100;5.874;2023-07-20T03:15:27;32.65;29.87;41.55;;
73638;Laerm;53743;51.100;5.874;2023-07-20T03:16:30;34.54;29.86;46.30;;
73638;Laerm;53743;51.100;5.874;2023-07-20T03:17:35;34.70;30.16;44.63;;
73638;Laerm;53743;51.100;5.874;2023-07-20T03:18:39;34.21;31.29;44.67;;
73638;Laerm;53743;51.100;5.874;2023-07-20T03:19:41;57.29;31.25;73.49;;
73638;Laerm;53743;51.100;5.874;2023-07-20T03:20:44;33.49;30.25;39.05;;
73638;Laerm;53743;51.100;5.874;2023-07-20T03:21:45;34.30;31.03;46.47;;
73638;Laerm;53743;51.100;5.874;2023-07-20T03:22:47;33.63;31.26;46.10;;
73638;Laerm;53743;51.100;5.874;2023-07-20T03:23:49;58.30;30.81;74.79;;
73638;Laerm;53743;51.100;5.874;2023-07-20T03:24:52;53.17;31.65;68.00;;
73638;Laerm;53743;51.100;5.874;2023-07-20T03:25:56;57.01;31.93;72.53;;
73638;Laerm;53743;51.100;5.874;2023-07-20T03:26:58;47.88;31.23;62.63;;
73638;Laerm;53743;51.100;5.874;2023-07-20T03:27:59;51.99;31.92;66.80;;
73638;Laerm;53743;51.100;5.874;2023-07-20T03:29:04;34.34;31.14;43.71;;
73638;Laerm;53743;51.100;5.874;2023-07-20T03:30:08;53.23;31.33;71.43;;
73638;Laerm;53743;51.100;5.874;2023-07-20T03:31:13;36.67;31.49;46.20;;
73638;Laerm;53743;51.100;5.874;2023-07-20T03:32:16;36.57;30.87;47.09;;
73638;Laerm;53743;51.100;5.874;2023-07-20T03:33:18;36.90;30.94;50.37;;
73638;Laerm;53743;51.100;5.874;2023-07-20T03:34:19;37.08;30.90;47.04;;
73638;Laerm;53743;51.100;5.874;2023-07-20T03:35:22;58.80;31.97;77.22;;
73638;Laerm;53743;51.100;5.874;2023-07-20T03:36:24;59.65;31.17;74.68;;
73638;Laerm;53743;51.100;5.874;2023-07-20T03:37:26;56.41;34.03;70.97;;
73638;Laerm;53743;51.100;5.874;2023-07-20T03:38:27;55.49;31.31;72.52;;
73638;Laerm;53743;51.100;5.874;2023-07-20T03:39:29;35.81;31.38;48.40;;
73638;Laerm;53743;51.100;5.874;2023-07-20T03:40:30;59.47;32.17;76.57;;
73638;Laerm;53743;51.100;5.874;2023-07-20T03:41:33;59.52;32.13;73.08;;
73638;Laerm;53743;51.100;5.874;2023-07-20T03:42:34;39.11;32.12;52.76;;
73638;Laerm;53743;51.100;5.874;2023-07-20T03:43:37;54.15;32.13;71.38;;
73638;Laerm;53743;51.100;5.874;2023-07-20T03:44:38;51.41;32.18;68.76;;
73638;Laerm;53743;51.100;5.874;2023-07-20T03:45:42;61.19;32.77;74.13;;
73638;Laerm;53743;51.100;5.874;2023-07-20T03:46:44;37.59;32.41;47.14;;
73638;Laerm;53743;51.100;5.874;2023-07-20T03:47:46;54.92;32.57;69.85;;
73638;Laerm;53743;51.100;5.874;2023-07-20T03:48:49;34.31;31.68;42.54;;
73638;Laerm;53743;51.100;5.874;2023-07-20T03:49:51;55.97;33.18;71.28;;
73638;Laerm;53743;51.100;5.874;2023-07-20T03:50:54;56.43;35.05;71.88;;
73638;Laerm;53743;51.100;5.874;2023-07-20T03:51:58;60.15;32.95;76.17;;
73638;Laerm;53743;51.100;5.874;2023-07-20T03:52:59;60.28;37.71;74.80;;
73638;Laerm;53743;51.100;5.874;2023-07-20T03:54:01;54.24;32.39;68.83;;
73638;Laerm;53743;51.100;5.874;2023-07-20T03:55:03;44.03;31.24;61.12;;
73638;Laerm;53743;51.100;5.874;2023-07-20T03:56:06;58.38;32.07;72.82;;
73638;Laerm;53743;51.100;5.874;2023-07-20T03:57:09;67.81;31.62;84.11;;
73638;Laerm;53743;51.100;5.874;2023-07-20T03:58:12;39.74;31.34;50.91;;
73638;Laerm;53743;51.100;5.874;2023-07-20T03:59:13;62.62;33.14;75.95;;
73638;Laerm;53743;51.100;5.874;2023-07-20T04:00:16;60.77;32.18;75.16;;
73638;Laerm;53743;51.100;5.874;2023-07-20T04:01:17;40.81;30.82;53.59;;
73638;Laerm;53743;51.100;5.874;2023-07-20T04:02:18;36.50;31.17;47.16;;
73638;Laerm;53743;51.100;5.874;2023-07-20T04:03:20;59.13;32.89;74.35;;
73638;Laerm;53743;51.100;5.874;2023-07-20T04:04:23;64.34;33.49;79.38;;
73638;Laerm;53743;51.100;5.874;2023-07-20T04:05:25;54.79;34.19;68.82;;
73638;Laerm;53743;51.100;5.874;2023-07-20T04:06:28;40.53;31.78;56.48;;
73638;Laerm;53743;51.100;5.874;2023-07-20T04:07:30;40.43;31.65;55.58;;
73638;Laerm;53743;51.100;5.874;2023-07-20T04:08:31;41.01;31.79;58.26;;
73638;Laerm;53743;51.100;5.874;2023-07-20T04:09:33;54.77;32.79;69.61;;
73638;Laerm;53743;51.100;5.874;2023-07-20T04:10:35;56.65;35.03;70.59;;
73638;Laerm;53743;51.100;5.874;2023-07-20T04:11:37;53.45;32.68;68.24;;
73638;Laerm;53743;51.100;5.874;2023-07-20T04:12:38;57.81;37.71;70.93;;
73638;Laerm;53743;51.100;5.874;2023-07-20T04:13:40;55.40;32.85;67.46;;
73638;Laerm;53743;51.100;5.874;2023-07-20T04:14:41;40.52;32.16;56.24;;
73638;Laerm;53743;51.100;5.874;2023-07-20T04:15:43;61.75;34.61;74.16;;
73638;Laerm;53743;51.100;5.874;2023-07-20T04:16:46;38.45;32.27;61.42;;
73638;Laerm;53743;51.100;5.874;2023-07-20T04:17:48;43.10;32.43;52.78;;
73638;Laerm;53743;51.100;5.874;2023-07-20T04:18:50;59.55;44.88;73.10;;
73638;Laerm;53743;51.100;5.874;2023-07-20T04:19:52;63.53;45.04;75.02;;
73638;Laerm;53743;51.100;5.874;2023-07-20T04:20:53;61.73;36.77;77.03;;
73638;Laerm;53743;51.100;5.874;2023-07-20T04:21:57;57.39;35.08;70.74;;
73638;Laerm;53743;51.100;5.874;2023-07-20T04:22:58;60.19;33.35;76.10;;
73638;Laerm;53743;51.100;5.874;2023-07-20T04:24:00;61.25;36.72;75.56;;
73638;Laerm;53743;51.100;5.874;2023-07-20T04:25:01;60.05;36.32;73.13;;
73638;Laerm;53743;51.100;5.874;2023-07-20T04:26:03;64.72;40.63;78.06;;
73638;Laerm;53743;51.100;5.874;2023-07-20T04:27:05;66.80;48.04;79.63;;
73638;Laerm;53743;51.100;5.874;2023-07-20T04:28:10;59.24;32.39;76.04;;
73638;Laerm;53743;51.100;5.874;2023-07-20T04:29:12;36.81;32.75;56.51;;
73638;Laerm;53743;51.100;5.874;2023-07-20T04:30:18;63.75;36.40;75.79;;
73638;Laerm;53743;51.100;5.874;2023-07-20T04:31:21;55.71;34.21;70.62;;
73638;Laerm;53743;51.100;5.874;2023-07-20T04:32:23;60.68;36.23;75.60;;
73638;Laerm;53743;51.100;5.874;2023-07-20T04:33:24;58.69;34.43;75.08;;
73638;Laerm;53743;51.100;5.874;2023-07-20T04:34:29;54.38;32.25;73.59;;
73638;Laerm;53743;51.100;5.874;2023-07-20T04:35:50;61.49;35.75;77.73;;
73638;Laerm;53743;51.100;5.874;2023-07-20T04:36:57;62.07;34.29;77.48;;
73638;Laerm;53743;51.100;5.874;2023-07-20T04:37:59;62.65;39.50;74.66;;
73638;Laerm;53743;51.100;5.874;2023-07-20T04:39:01;56.55;32.69;70.01;;
73638;Laerm;53743;51.100;5.874;2023-07-20T04:40:11;56.48;33.64;73.97;;
73638;Laerm;53743;51.100;5.874;2023-07-20T04:41:13;58.63;37.92;74.88;;
73638;Laerm;53743;51.100;5.874;2023-07-20T04:42:18;61.52;38.86;74.20;;
73638;Laerm;53743;51.100;5.874;2023-07-20T04:43:21;55.01;34.14;69.80;;
73638;Laerm;53743;51.100;5.874;2023-07-20T04:44:22;66.49;43.12;78.44;;
73638;Laerm;53743;51.100;5.874;2023-07-20T04:45:24;60.08;35.06;73.58;;
73638;Laerm;53743;51.100;5.874;2023-07-20T04:46:26;60.38;34.67;74.20;;
73638;Laerm;53743;51.100;5.874;2023-07-20T04:47:29;60.65;36.93;75.36;;
73638;Laerm;53743;51.100;5.874;2023-07-20T04:48:30;62.77;32.95;78.00;;
73638;Laerm;53743;51.100;5.874;2023-07-20T04:49:33;62.39;34.64;73.33;;
73638;Laerm;53743;51.100;5.874;2023-07-20T04:50:34;60.48;34.44;72.74;;
73638;Laerm;53743;51.100;5.874;2023-07-20T04:51:36;57.52;33.49;73.88;;
73638;Laerm;53743;51.100;5.874;2023-07-20T04:52:38;67.18;35.84;83.07;;
73638;Laerm;53743;51.100;5.874;2023-07-20T04:53:40;63.08;34.88;78.79;;
73638;Laerm;53743;51.100;5.874;2023-07-20T04:54:43;58.64;36.59;76.99;;
73638;Laerm;53743;51.100;5.874;2023-07-20T04:55:50;61.86;41.81;75.32;;
73638;Laerm;53743;51.100;5.874;2023-07-20T04:56:53;58.65;33.32;72.27;;
73638;Laerm;53743;51.100;5.874;2023-07-20T04:57:55;64.22;33.80;80.52;;
73638;Laerm;53743;51.100;5.874;2023-07-20T04:58:58;64.70;48.06;76.51;;
73638;Laerm;53743;51.100;5.874;2023-07-20T05:00:00;59.58;32.93;73.28;;
73638;Laerm;53743;51.100;5.874;2023-07-20T05:01:02;62.72;38.68;77.42;;
73638;Laerm;53743;51.100;5.874;2023-07-20T05:02:05;59.53;38.00;72.78;;
73638;Laerm;53743;51.100;5.874;2023-07-20T05:03:06;62.95;39.05;75.96;;
73638;Laerm;53743;51.100;5.874;2023-07-20T05:04:09;62.50;37.18;72.91;;
73638;Laerm;53743;51.100;5.874;2023-07-20T05:05:11;62.68;37.77;73.63;;
73638;Laerm;53743;51.100;5.874;2023-07-20T05:06:12;56.24;33.60;69.83;;
73638;Laerm;53743;51.100;5.874;2023-07-20T05:07:14;64.53;43.44;79.80;;
73638;Laerm;53743;51.100;5.874;2023-07-20T05:08:17;60.44;36.02;76.56;;
73638;Laerm;53743;51.100;5.874;2023-07-20T05:09:19;64.03;38.94;84.28;;
73638;Laerm;53743;51.100;5.874;2023-07-20T05:10:20;57.39;32.56;73.52;;
73638;Laerm;53743;51.100;5.874;2023-07-20T05:11:22;64.59;43.54;77.21;;
73638;Laerm;53743;51.100;5.874;2023-07-20T05:12:23;63.64;32.61;76.03;;
73638;Laerm;53743;51.100;5.874;2023-07-20T05:13:25;64.05;36.16;74.45;;
73638;Laerm;53743;51.100;5.874;2023-07-20T05:14:26;63.31;33.90;76.94;;
73638;Laerm;53743;51.100;5.874;2023-07-20T05:15:29;63.52;35.95;74.32;;
73638;Laerm;53743;51.100;5.874;2023-07-20T05:16:32;61.16;32.36;76.65;;
73638;Laerm;53743;51.100;5.874;2023-07-20T05:17:38;64.63;35.49;77.48;;
73638;Laerm;53743;51.100;5.874;2023-07-20T05:18:41;55.51;37.41;71.50;;
73638;Laerm;53743;51.100;5.874;2023-07-20T05:19:44;62.98;45.94;75.25;;
73638;Laerm;53743;51.100;5.874;2023-07-20T05:20:46;64.06;37.37;76.67;;
73638;Laerm;53743;51.100;5.874;2023-07-20T05:21:48;55.17;37.11;70.31;;
73638;Laerm;53743;51.100;5.874;2023-07-20T05:22:49;64.99;41.15;77.18;;
73638;Laerm;53743;51.100;5.874;2023-07-20T05:23:52;63.23;37.84;77.48;;
73638;Laerm;53743;51.100;5.874;2023-07-20T05:24:53;63.23;39.15;75.77;;
73638;Laerm;53743;51.100;5.874;2023-07-20T05:25:56;63.80;45.38;75.06;;
73638;Laerm;53743;51.100;5.874;2023-07-20T05:26:58;62.53;44.60;74.30;;
73638;Laerm;53743;51.100;5.874;2023-07-20T05:28:00;66.04;45.78;75.72;;
73638;Laerm;53743;51.100;5.874;2023-07-20T05:29:01;63.55;41.16;75.63;;
73638;Laerm;53743;51.100;5.874;2023-07-20T05:30:05;64.00;41.68;76.50;;
73638;Laerm;53743;51.100;5.874;2023-07-20T05:31:08;63.55;39.42;79.05;;
73638;Laerm;53743;51.100;5.874;2023-07-20T05:32:10;57.39;36.12;69.31;;
73638;Laerm;53743;51.100;5.874;2023-07-20T05:33:11;63.12;41.09;74.34;;
73638;Laerm;53743;51.100;5.874;2023-07-20T05:34:13;64.53;39.62;76.60;;
73638;Laerm;53743;51.100;5.874;2023-07-20T05:35:14;65.56;43.11;78.10;;
73638;Laerm;53743;51.100;5.874;2023-07-20T05:36:17;64.88;43.13;82.58;;
73638;Laerm;53743;51.100;5.874;2023-07-20T05:37:18;59.74;38.41;72.12;;
73638;Laerm;53743;51.100;5.874;2023-07-20T05:38:20;60.21;34.56;75.56;;
73638;Laerm;53743;51.100;5.874;2023-07-20T05:39:23;65.28;41.68;77.59;;
73638;Laerm;53743;51.100;5.874;2023-07-20T05:40:25;63.88;35.21;78.53;;
73638;Laerm;53743;51.100;5.874;2023-07-20T05:41:27;62.08;39.15;77.60;;
73638;Laerm;53743;51.100;5.874;2023-07-20T05:42:28;60.70;38.90;70.99;;
73638;Laerm;53743;51.100;5.874;2023-07-20T05:43:30;63.02;41.47;76.96;;
73638;Laerm;53743;51.100;5.874;2023-07-20T05:44:32;60.94;40.63;75.37;;
73638;Laerm;53743;51.100;5.874;2023-07-20T05:45:33;66.00;46.40;76.94;;
73638;Laerm;53743;51.100;5.874;2023-07-20T05:46:35;64.09;39.68;72.68;;
73638;Laerm;53743;51.100;5.874;2023-07-20T05:47:36;61.86;35.84;76.14;;
73638;Laerm;53743;51.100;5.874;2023-07-20T05:48:38;66.52;35.72;81.02;;
73638;Laerm;53743;51.100;5.874;2023-07-20T05:49:39;62.37;36.74;75.77;;
73638;Laerm;53743;51.100;5.874;2023-07-20T05:50:42;63.75;38.33;72.72;;
73638;Laerm;53743;51.100;5.874;2023-07-20T05:51:45;65.49;49.75;73.26;;
73638;Laerm;53743;51.100;5.874;2023-07-20T05:52:47;60.15;38.74;71.25;;
73638;Laerm;53743;51.100;5.874;2023-07-20T05:53:49;60.08;34.98;75.39;;
73638;Laerm;53743;51.100;5.874;2023-07-20T05:54:52;63.88;36.73;76.39;;